Time;durP1;ratioP1;P1;durP2;ratioP2;P2;SDS_P1;SDS_P2;PMS_P1;PMS_P2;Temp;Humidity;BMP_temperature;BMP_pressure;BME280_temperature;BME280_humidity;BME280_pressure;Samples;Min_cycle;Max_cycle;Signal;HPM_P1;HPM_P2
2023/08/07 00:00:37;;;;;;;17.90;3.00;;;14.80;99.90;;;;;;5051438;28;20025;-74
2023/08/07 00:03:02;;;;;;;16.83;3.35;;;14.80;99.90;;;;;;5050089;28;20021;-75
2023/08/07 00:05:28;;;;;;;19.65;3.00;;;14.80;99.90;;;;;;5051956;28;20083;-74
2023/08/07 00:07:54;;;;;;;17.33;3.42;;;14.90;99.90;;;;;;5052648;28;20020;-74
2023/08/07 00:10:20;;;;;;;10.52;2.70;;;14.90;99.90;;;;;;5050462;28;20033;-74
2023/08/07 00:12:45;;;;;;;12.18;2.25;;;14.80;99.90;;;;;;5051169;28;20027;-74
2023/08/07 00:15:11;;;;;;;9.45;2.30;;;14.70;99.90;;;;;;5050291;28;20043;-75
2023/08/07 00:17:37;;;;;;;8.15;2.15;;;14.60;99.90;;;;;;5053193;28;20495;-74
2023/08/07 00:20:04;;;;;;;13.32;2.47;;;14.50;99.90;;;;;;5050189;28;20041;-74
2023/08/07 00:22:30;;;;;;;11.68;2.42;;;14.40;99.90;;;;;;5043299;28;20029;-74
2023/08/07 00:24:55;;;;;;;12.20;2.42;;;14.30;99.90;;;;;;5047843;28;20029;-74
2023/08/07 00:27:21;;;;;;;8.65;2.70;;;14.30;99.90;;;;;;5050673;28;20033;-74
2023/08/07 00:29:46;;;;;;;12.50;2.33;;;14.20;99.90;;;;;;5046269;28;20024;-74
2023/08/07 00:32:12;;;;;;;12.02;3.33;;;14.20;99.90;;;;;;5050987;28;20021;-74
2023/08/07 00:34:38;;;;;;;16.98;3.63;;;14.20;99.90;;;;;;5050119;28;20388;-74
2023/08/07 00:37:03;;;;;;;13.88;3.63;;;14.20;99.90;;;;;;5051848;28;20029;-75
2023/08/07 00:39:29;;;;;;;20.55;3.33;;;14.30;99.90;;;;;;5051738;28;20036;-74
2023/08/07 00:41:55;;;;;;;16.02;3.33;;;14.30;99.90;;;;;;5051101;28;20480;-74
2023/08/07 00:44:20;;;;;;;20.52;3.60;;;14.30;99.90;;;;;;5048740;28;20488;-74
2023/08/07 00:46:47;;;;;;;11.68;2.88;;;14.40;99.90;;;;;;5042121;28;20112;-75
2023/08/07 00:49:13;;;;;;;15.90;3.10;;;14.40;99.90;;;;;;5051796;28;20502;-74
2023/08/07 00:51:39;;;;;;;17.55;3.08;;;14.40;99.90;;;;;;5046804;28;20032;-74
2023/08/07 00:54:07;;;;;;;19.63;3.35;;;14.50;99.90;;;;;;5039712;28;20100;-74
2023/08/07 00:56:33;;;;;;;16.90;3.33;;;14.50;99.90;;;;;;5047789;28;20310;-74
2023/08/07 00:59:00;;;;;;;17.23;3.53;;;14.60;99.90;;;;;;5048602;28;20473;-74
2023/08/07 01:01:26;;;;;;;13.32;3.58;;;14.70;99.90;;;;;;5058014;28;20032;-74
2023/08/07 01:03:52;;;;;;;19.02;3.25;;;14.60;99.90;;;;;;5063469;28;20072;-74
2023/08/07 01:06:17;;;;;;;15.10;3.72;;;14.70;99.90;;;;;;5060462;28;20033;-74
2023/08/07 01:08:44;;;;;;;14.27;3.10;;;14.70;99.90;;;;;;5052486;28;20042;-74
2023/08/07 01:11:23;;;;;;;18.35;3.20;;;14.70;99.90;;;;;;5050500;28;20476;-75
2023/08/07 01:14:40;;;;;;;13.32;2.63;;;14.80;99.90;;;;;;5042733;28;20018;-74
2023/08/07 01:17:09;;;;;;;;;;;14.80;99.90;;;;;;5050599;28;20055;-74
2023/08/07 01:19:36;;;;;;;20.15;3.40;;;14.80;99.90;;;;;;5039168;28;19905;-74
2023/08/07 01:22:09;;;;;;;16.90;2.72;;;14.80;99.90;;;;;;5049006;28;20025;-74
2023/08/07 01:24:36;;;;;;;16.85;3.00;;;14.80;99.90;;;;;;5040044;28;20049;-74
2023/08/07 01:27:19;;;;;;;16.35;2.80;;;14.80;99.90;;;;;;5046492;28;20064;-74
2023/08/07 01:30:00;;;;;;;11.82;3.25;;;14.90;99.90;;;;;;5046781;28;20021;-74
2023/08/07 01:32:34;;;;;;;13.68;2.97;;;14.90;99.90;;;;;;5050118;28;20028;-74
2023/08/07 01:35:02;;;;;;;14.03;3.27;;;14.90;99.90;;;;;;5047587;28;20021;-74
2023/08/07 01:37:31;;;;;;;17.35;3.33;;;14.90;99.90;;;;;;5050021;28;20021;-74
2023/08/07 01:40:00;;;;;;;17.58;3.58;;;14.90;99.90;;;;;;5047747;28;20056;-74
2023/08/07 01:42:26;;;;;;;13.45;3.47;;;15.00;99.90;;;;;;5047404;28;20044;-74
2023/08/07 01:44:52;;;;;;;20.48;3.65;;;15.00;99.90;;;;;;5040521;28;20021;-74
2023/08/07 01:47:18;;;;;;;16.80;3.00;;;15.00;99.90;;;;;;5044025;28;20044;-74
2023/08/07 01:49:43;;;;;;;15.40;2.90;;;15.00;99.90;;;;;;5045209;28;20021;-74
2023/08/07 01:52:11;;;;;;;13.48;2.70;;;15.00;99.90;;;;;;5049613;28;20084;-74
2023/08/07 01:54:36;;;;;;;14.30;2.80;;;15.00;99.90;;;;;;5045049;28;20028;-74
2023/08/07 01:57:02;;;;;;;11.00;2.85;;;15.00;99.90;;;;;;5044889;28;20476;-74
2023/08/07 01:59:28;;;;;;;12.20;2.80;;;15.00;99.90;;;;;;5043552;28;20740;-74
2023/08/07 02:01:54;;;;;;;11.90;3.15;;;15.00;99.90;;;;;;5047512;28;20029;-74
2023/08/07 02:04:19;;;;;;;18.02;3.50;;;15.00;99.90;;;;;;5044739;28;20101;-74
2023/08/07 02:06:45;;;;;;;17.05;3.42;;;15.00;99.90;;;;;;5048592;28;20041;-74
2023/08/07 02:09:10;;;;;;;14.40;2.70;;;15.00;99.90;;;;;;5042933;28;20074;-74
2023/08/07 02:11:36;;;;;;;15.32;3.10;;;15.00;99.90;;;;;;5043553;28;20246;-74
2023/08/07 02:14:02;;;;;;;13.65;2.92;;;15.00;99.90;;;;;;5045269;28;20029;-74
2023/08/07 02:16:28;;;;;;;11.70;2.97;;;15.00;99.90;;;;;;5046458;28;20048;-74
2023/08/07 02:18:54;;;;;;;17.55;3.17;;;15.00;99.90;;;;;;5045299;28;20017;-74
2023/08/07 02:21:19;;;;;;;12.43;3.05;;;15.00;99.90;;;;;;5049124;28;20045;-73
2023/08/07 02:23:45;;;;;;;16.23;3.25;;;15.00;99.90;;;;;;5043547;28;20104;-74
2023/08/07 02:26:10;;;;;;;17.75;3.10;;;15.00;99.90;;;;;;5049059;28;20028;-74
2023/08/07 02:28:36;;;;;;;16.27;3.10;;;15.00;99.90;;;;;;5049607;28;20511;-74
2023/08/07 02:31:02;;;;;;;18.25;3.90;;;15.00;99.90;;;;;;5045408;28;20020;-74
2023/08/07 02:33:30;;;;;;;12.35;3.35;;;15.10;99.90;;;;;;5039212;28;20028;-74
2023/08/07 02:35:56;;;;;;;19.42;3.33;;;15.10;99.90;;;;;;5043718;28;20146;-74
2023/08/07 02:38:21;;;;;;;14.48;3.55;;;15.10;99.90;;;;;;5041978;28;20018;-74
2023/08/07 02:40:47;;;;;;;18.83;3.50;;;15.10;99.90;;;;;;5046779;28;20491;-74
2023/08/07 02:43:13;;;;;;;15.77;3.30;;;15.10;99.90;;;;;;5047566;28;20506;-74
2023/08/07 02:45:38;;;;;;;14.07;2.90;;;15.00;99.90;;;;;;5048950;28;20059;-74
2023/08/07 02:48:05;;;;;;;12.20;2.60;;;15.00;99.90;;;;;;5046361;28;20023;-73
2023/08/07 02:50:32;;;;;;;13.85;3.20;;;15.00;99.90;;;;;;5049465;28;20052;-74
2023/08/07 02:52:58;;;;;;;11.98;2.42;;;15.00;99.90;;;;;;5048593;28;20017;-74
2023/08/07 02:55:24;;;;;;;11.73;2.65;;;15.00;99.90;;;;;;5048476;28;20049;-74
2023/08/07 02:57:50;;;;;;;11.85;2.60;;;14.80;99.90;;;;;;5044523;28;20092;-74
2023/08/07 03:00:15;;;;;;;14.10;2.80;;;14.70;99.90;;;;;;5054038;28;20094;-75
2023/08/07 03:02:41;;;;;;;15.02;2.88;;;14.70;99.90;;;;;;5047282;28;20028;-74
2023/08/07 03:05:07;;;;;;;20.33;3.38;;;14.60;99.90;;;;;;5042306;28;20025;-74
2023/08/07 03:07:33;;;;;;;15.68;3.40;;;14.50;99.90;;;;;;5048836;28;20045;-74
2023/08/07 03:09:58;;;;;;;17.40;3.45;;;14.50;99.90;;;;;;5052631;28;20027;-75
2023/08/07 03:12:24;;;;;;;15.85;4.10;;;14.50;99.90;;;;;;5049921;28;20063;-75
2023/08/07 03:14:50;;;;;;;12.40;3.33;;;14.50;99.90;;;;;;5050787;28;20013;-74
2023/08/07 03:17:16;;;;;;;10.27;2.40;;;14.50;99.90;;;;;;5054447;28;20384;-74
2023/08/07 03:19:43;;;;;;;12.70;2.38;;;14.40;99.90;;;;;;5050185;28;20017;-74
2023/08/07 03:22:09;;;;;;;12.90;3.10;;;14.40;99.90;;;;;;5048959;28;20456;-75
2023/08/07 03:24:34;;;;;;;12.88;2.08;;;14.30;99.90;;;;;;5049994;28;20052;-74
2023/08/07 03:27:00;;;;;;;15.02;2.13;;;14.30;99.90;;;;;;5042072;28;20440;-75
2023/08/07 03:29:26;;;;;;;9.27;2.67;;;14.30;99.90;;;;;;5047825;28;20036;-75
2023/08/07 03:31:51;;;;;;;15.18;2.50;;;14.30;99.90;;;;;;5049347;28;20021;-74
2023/08/07 03:34:17;;;;;;;13.85;2.40;;;14.30;99.90;;;;;;5042999;28;20036;-74
2023/08/07 03:36:43;;;;;;;13.43;2.72;;;14.30;99.90;;;;;;5051245;28;20064;-74
2023/08/07 03:39:10;;;;;;;11.88;2.80;;;14.30;99.90;;;;;;5043237;28;20024;-74
2023/08/07 03:41:35;;;;;;;13.07;2.60;;;14.30;99.90;;;;;;5039551;28;20021;-74
2023/08/07 03:44:01;;;;;;;13.43;2.80;;;14.30;99.90;;;;;;5048909;28;20032;-74
2023/08/07 03:46:27;;;;;;;13.23;2.53;;;14.30;99.90;;;;;;5053256;28;20104;-75
2023/08/07 03:48:52;;;;;;;16.33;3.00;;;14.30;99.90;;;;;;5049652;28;20534;-75
2023/08/07 03:51:18;;;;;;;12.80;2.90;;;14.30;99.90;;;;;;5050732;28;20048;-75
2023/08/07 03:53:44;;;;;;;13.23;2.72;;;14.30;99.90;;;;;;5050051;28;20022;-74
2023/08/07 03:56:10;;;;;;;15.65;3.20;;;14.40;99.90;;;;;;5064756;28;20079;-75
2023/08/07 03:58:35;;;;;;;9.55;2.88;;;14.40;99.90;;;;;;5066395;28;20049;-75
2023/08/07 04:01:01;;;;;;;17.55;3.08;;;14.40;99.90;;;;;;5049745;28;20030;-75
2023/08/07 04:03:27;;;;;;;22.05;3.17;;;14.40;99.90;;;;;;5049202;28;20028;-74
2023/08/07 04:05:53;;;;;;;20.67;3.67;;;14.50;99.90;;;;;;5049960;28;20029;-75
2023/08/07 04:08:20;;;;;;;19.65;3.45;;;14.60;99.90;;;;;;5041228;28;20609;-75
2023/08/07 04:10:45;;;;;;;17.55;2.92;;;14.60;99.90;;;;;;5052085;28;20013;-75
2023/08/07 04:13:11;;;;;;;15.13;3.08;;;14.60;99.90;;;;;;5045641;28;20385;-74
2023/08/07 04:15:36;;;;;;;9.90;2.58;;;14.60;99.90;;;;;;5051143;28;20032;-75
2023/08/07 04:18:02;;;;;;;19.85;2.85;;;14.70;99.90;;;;;;5046037;28;20024;-75
2023/08/07 04:20:28;;;;;;;20.20;2.97;;;14.70;99.90;;;;;;5052205;28;20025;-75
2023/08/07 04:22:53;;;;;;;18.00;2.60;;;14.80;99.90;;;;;;5049953;28;20017;-75
2023/08/07 04:25:19;;;;;;;13.55;2.58;;;14.80;99.90;;;;;;5049064;28;20025;-74
2023/08/07 04:27:45;;;;;;;14.63;2.83;;;14.80;99.90;;;;;;5053134;28;21372;-75
2023/08/07 04:30:11;;;;;;;13.35;2.35;;;14.80;99.90;;;;;;5044768;28;20029;-74
2023/08/07 04:32:36;;;;;;;19.35;3.00;;;14.90;99.90;;;;;;5047361;28;20041;-75
2023/08/07 04:35:02;;;;;;;19.73;2.47;;;14.90;99.90;;;;;;5038800;28;20025;-74
2023/08/07 04:37:30;;;;;;;16.10;3.10;;;14.90;99.90;;;;;;5043527;28;20048;-75
2023/08/07 04:39:55;;;;;;;12.95;2.80;;;14.90;99.90;;;;;;5040716;28;20013;-74
2023/08/07 04:42:21;;;;;;;15.00;2.75;;;14.90;99.90;;;;;;5053151;28;20096;-75
2023/08/07 04:44:47;;;;;;;20.00;2.70;;;14.90;99.90;;;;;;5053103;28;20017;-74
2023/08/07 04:47:12;;;;;;;20.95;2.63;;;14.90;99.90;;;;;;5052850;28;20028;-75
2023/08/07 04:49:38;;;;;;;15.65;2.30;;;14.90;99.90;;;;;;5052853;28;20382;-74
2023/08/07 04:52:04;;;;;;;16.88;3.05;;;14.90;99.90;;;;;;5052758;28;20349;-74
2023/08/07 04:54:29;;;;;;;17.25;2.95;;;14.90;99.90;;;;;;5050697;28;20029;-74
2023/08/07 04:56:55;;;;;;;16.60;2.80;;;14.90;99.90;;;;;;5052773;28;20503;-75
2023/08/07 04:59:21;;;;;;;11.70;2.42;;;14.90;99.90;;;;;;5052479;28;20052;-74
2023/08/07 05:01:46;;;;;;;12.45;2.50;;;14.90;99.90;;;;;;5051401;28;20033;-75
2023/08/07 05:04:12;;;;;;;15.75;3.05;;;14.90;99.90;;;;;;5052623;28;20104;-75
2023/08/07 05:06:37;;;;;;;15.57;2.33;;;14.90;99.90;;;;;;5042369;28;20037;-74
2023/08/07 05:09:03;;;;;;;14.88;2.80;;;14.90;99.90;;;;;;5051870;28;20075;-74
2023/08/07 05:11:29;;;;;;;12.57;2.47;;;15.00;99.90;;;;;;5043439;28;20388;-75
2023/08/07 05:13:54;;;;;;;14.07;2.20;;;14.90;99.90;;;;;;5049611;28;20025;-74
2023/08/07 05:16:20;;;;;;;14.60;2.80;;;14.90;99.90;;;;;;5047039;28;20053;-74
2023/08/07 05:18:46;;;;;;;13.65;2.22;;;15.00;99.90;;;;;;5051377;28;20547;-75
2023/08/07 05:21:12;;;;;;;14.88;2.50;;;14.90;99.90;;;;;;5051128;28;20096;-75
2023/08/07 05:23:37;;;;;;;21.08;2.50;;;14.90;99.90;;;;;;5048652;28;20101;-74
2023/08/07 05:26:03;;;;;;;12.07;2.58;;;14.90;99.90;;;;;;5050936;28;20029;-74
2023/08/07 05:28:29;;;;;;;21.13;2.67;;;15.00;99.90;;;;;;5050644;28;20573;-74
2023/08/07 05:30:54;;;;;;;13.32;2.38;;;15.00;99.90;;;;;;5050967;28;20025;-75
2023/08/07 05:33:20;;;;;;;18.17;2.70;;;15.00;99.90;;;;;;5051377;28;20096;-74
2023/08/07 05:35:45;;;;;;;14.18;2.67;;;15.10;99.90;;;;;;5039857;28;20107;-74
2023/08/07 05:38:11;;;;;;;17.50;2.63;;;15.10;99.90;;;;;;5045012;28;20053;-74
2023/08/07 05:40:37;;;;;;;17.20;2.90;;;15.10;99.90;;;;;;5047589;28;20514;-74
2023/08/07 05:43:03;;;;;;;12.73;2.63;;;15.10;99.90;;;;;;5043927;28;20132;-75
2023/08/07 05:45:28;;;;;;;13.57;2.67;;;15.20;99.90;;;;;;5050993;28;20096;-75
2023/08/07 05:47:54;;;;;;;16.60;2.50;;;15.20;99.90;;;;;;5051479;28;20024;-75
2023/08/07 05:50:20;;;;;;;16.77;2.80;;;15.20;99.90;;;;;;5050817;28;20431;-75
2023/08/07 05:52:45;;;;;;;17.70;2.88;;;15.30;99.90;;;;;;5048269;28;20020;-75
2023/08/07 05:55:11;;;;;;;13.88;2.88;;;15.30;99.90;;;;;;5047546;28;20025;-75
2023/08/07 05:57:36;;;;;;;14.48;2.90;;;15.30;99.90;;;;;;5050862;28;20025;-75
2023/08/07 06:00:03;;;;;;;14.43;2.55;;;15.30;99.90;;;;;;5050350;28;20048;-75
2023/08/07 06:02:29;;;;;;;13.23;2.53;;;15.40;99.90;;;;;;5038553;28;20096;-75
2023/08/07 06:04:54;;;;;;;14.38;2.75;;;15.50;99.90;;;;;;5050640;28;20100;-74
2023/08/07 06:07:20;;;;;;;13.48;2.47;;;15.50;99.90;;;;;;5033295;28;20021;-75
2023/08/07 06:09:46;;;;;;;14.15;2.70;;;15.50;99.90;;;;;;5044365;28;20088;-75
2023/08/07 06:12:12;;;;;;;13.18;2.58;;;15.50;99.90;;;;;;5050772;28;20029;-75
2023/08/07 06:14:38;;;;;;;13.15;2.33;;;15.50;99.90;;;;;;5050590;28;20021;-75
2023/08/07 06:17:04;;;;;;;18.40;2.53;;;15.50;99.90;;;;;;5050728;28;20021;-75
2023/08/07 06:19:29;;;;;;;11.35;2.60;;;15.50;99.90;;;;;;5050877;28;20403;-74
2023/08/07 06:21:56;;;;;;;12.10;2.80;;;15.50;99.90;;;;;;5045798;28;20020;-74
2023/08/07 06:24:21;;;;;;;19.48;3.15;;;15.50;99.90;;;;;;5046114;28;20066;-75
2023/08/07 06:26:47;;;;;;;19.15;2.75;;;15.50;99.90;;;;;;5050142;28;20025;-75
2023/08/07 06:29:12;;;;;;;11.52;2.40;;;15.50;99.90;;;;;;5050010;28;20096;-75
2023/08/07 06:31:38;;;;;;;9.07;2.03;;;15.50;99.90;;;;;;5049832;28;20049;-75
2023/08/07 06:34:04;;;;;;;11.65;2.30;;;15.60;99.90;;;;;;5050145;28;20044;-75
2023/08/07 06:36:30;;;;;;;11.10;2.13;;;15.50;99.90;;;;;;5050432;28;20029;-75
2023/08/07 06:38:55;;;;;;;12.35;2.55;;;15.60;99.90;;;;;;5050523;28;20099;-75
2023/08/07 06:41:21;;;;;;;13.10;2.80;;;15.60;99.90;;;;;;5046274;28;20097;-75
2023/08/07 06:43:47;;;;;;;13.32;2.38;;;15.60;99.90;;;;;;5044626;28;20056;-75
2023/08/07 06:46:12;;;;;;;14.68;2.38;;;15.70;99.90;;;;;;5054730;28;20032;-75
2023/08/07 06:48:38;;;;;;;11.88;2.55;;;15.70;99.90;;;;;;5064012;28;20055;-74
2023/08/07 06:51:04;;;;;;;11.10;2.40;;;15.70;99.90;;;;;;5049718;28;20018;-74
2023/08/07 06:53:29;;;;;;;12.40;2.95;;;15.80;99.90;;;;;;5055860;28;20029;-75
2023/08/07 06:55:55;;;;;;;13.80;2.58;;;15.90;99.90;;;;;;5050303;28;20027;-75
2023/08/07 06:58:20;;;;;;;15.38;2.78;;;16.00;99.90;;;;;;5050016;28;20399;-75
2023/08/07 07:00:46;;;;;;;14.43;2.55;;;16.00;99.90;;;;;;5044128;28;20018;-74
2023/08/07 07:03:12;;;;;;;8.40;2.17;;;16.10;99.90;;;;;;5043328;28;20048;-75
2023/08/07 07:05:38;;;;;;;11.18;2.22;;;16.00;99.90;;;;;;5034175;28;20018;-75
2023/08/07 07:08:04;;;;;;;12.50;2.60;;;16.00;99.90;;;;;;5033222;28;20061;-75
2023/08/07 07:10:29;;;;;;;12.20;2.03;;;16.00;99.90;;;;;;5046211;28;20033;-75
2023/08/07 07:12:55;;;;;;;8.98;2.40;;;16.00;99.90;;;;;;5042148;28;20499;-74
2023/08/07 07:15:21;;;;;;;12.60;2.13;;;16.00;99.90;;;;;;5043278;28;20101;-74
2023/08/07 07:17:46;;;;;;;12.30;2.05;;;16.10;99.90;;;;;;5049799;28;20017;-75
2023/08/07 07:20:12;;;;;;;19.88;2.92;;;16.20;99.90;;;;;;5043013;28;20088;-74
2023/08/07 07:22:38;;;;;;;14.20;2.63;;;16.30;99.90;;;;;;5049582;28;20096;-74
2023/08/07 07:25:04;;;;;;;12.70;2.70;;;16.30;99.90;;;;;;5036425;28;20384;-74
2023/08/07 07:27:30;;;;;;;12.10;2.58;;;16.40;99.90;;;;;;5047547;28;20086;-75
2023/08/07 07:29:55;;;;;;;10.13;2.30;;;16.50;99.90;;;;;;5044120;28;20049;-75
2023/08/07 07:32:21;;;;;;;13.05;2.58;;;16.60;99.90;;;;;;5049925;28;20025;-75
2023/08/07 07:34:47;;;;;;;9.85;2.30;;;16.60;99.90;;;;;;5048232;28;20013;-75
2023/08/07 07:37:14;;;;;;;12.68;2.30;;;16.70;99.90;;;;;;5049326;28;20551;-75
2023/08/07 07:39:40;;;;;;;12.98;2.50;;;16.70;99.90;;;;;;5049630;28;20027;-75
2023/08/07 07:42:07;;;;;;;10.00;1.88;;;16.70;99.90;;;;;;5048680;28;20484;-75
2023/08/07 07:44:33;;;;;;;13.20;2.70;;;16.70;99.90;;;;;;5053381;28;20017;-74
2023/08/07 07:46:59;;;;;;;9.00;1.73;;;16.70;99.90;;;;;;5053388;28;20041;-74
2023/08/07 07:49:25;;;;;;;8.95;1.92;;;16.80;99.90;;;;;;5052982;28;20028;-74
2023/08/07 07:51:50;;;;;;;9.52;1.88;;;16.90;99.90;;;;;;5046893;28;20021;-74
2023/08/07 07:54:16;;;;;;;7.55;1.80;;;17.00;99.90;;;;;;5052605;28;20766;-74
2023/08/07 07:56:43;;;;;;;9.45;2.33;;;17.20;99.90;;;;;;5052672;28;20032;-75
2023/08/07 07:59:08;;;;;;;7.05;1.98;;;17.40;99.90;;;;;;5039660;28;20043;-75
2023/08/07 08:01:34;;;;;;;8.93;2.15;;;17.50;99.90;;;;;;5052566;28;20532;-74
2023/08/07 08:04:00;;;;;;;7.45;1.80;;;17.50;99.90;;;;;;5040895;28;20012;-75
2023/08/07 08:06:25;;;;;;;9.65;1.90;;;17.60;99.90;;;;;;5052260;28;20082;-75
2023/08/07 08:08:51;;;;;;;7.10;1.80;;;17.60;99.90;;;;;;5052690;28;20380;-75
2023/08/07 08:11:17;;;;;;;18.67;2.60;;;17.60;99.90;;;;;;5052470;28;20017;-75
2023/08/07 08:13:43;;;;;;;10.45;1.98;;;17.60;99.90;;;;;;5039797;28;20492;-75
2023/08/07 08:16:08;;;;;;;10.02;2.45;;;17.50;99.90;;;;;;5046505;28;20049;-75
2023/08/07 08:18:34;;;;;;;10.55;1.92;;;17.40;99.90;;;;;;5052310;28;20503;-74
2023/08/07 08:21:00;;;;;;;9.70;2.20;;;17.40;99.90;;;;;;5048173;28;20127;-74
2023/08/07 08:23:26;;;;;;;10.05;2.00;;;17.40;99.90;;;;;;5050537;28;20388;-74
2023/08/07 08:25:52;;;;;;;11.80;1.95;;;17.50;99.90;;;;;;5048667;28;20025;-74
2023/08/07 08:28:18;;;;;;;8.73;1.75;;;17.70;99.90;;;;;;5052059;28;20036;-75
2023/08/07 08:30:44;;;;;;;8.77;1.80;;;17.90;99.90;;;;;;5051108;28;20025;-75
2023/08/07 08:33:12;;;;;;;8.60;2.20;;;18.00;99.90;;;;;;5052064;28;20032;-75
2023/08/07 08:35:38;;;;;;;8.57;2.10;;;18.20;99.90;;;;;;5039847;28;20504;-75
2023/08/07 08:38:03;;;;;;;12.68;2.30;;;18.40;99.90;;;;;;5046369;28;20028;-75
2023/08/07 08:40:30;;;;;;;8.88;2.10;;;18.50;99.90;;;;;;5034996;28;20461;-75
2023/08/07 08:42:59;;;;;;;7.20;2.03;;;18.60;99.90;;;;;;5042117;28;20088;-75
2023/08/07 08:45:27;;;;;;;6.72;1.80;;;18.70;99.90;;;;;;5043468;28;20469;-75
2023/08/07 08:47:57;;;;;;;8.02;2.00;;;18.80;99.90;;;;;;5051945;28;20097;-75
2023/08/07 08:50:23;;;;;;;5.53;1.50;;;18.90;99.90;;;;;;5051862;28;20051;-75
2023/08/07 08:52:53;;;;;;;8.40;1.75;;;19.00;99.90;;;;;;5052163;28;20029;-75
2023/08/07 08:55:21;;;;;;;7.53;1.92;;;18.90;99.90;;;;;;5051002;28;20021;-75
2023/08/07 08:57:47;;;;;;;10.95;1.90;;;18.80;99.90;;;;;;5051665;28;20179;-75
2023/08/07 09:00:23;;;;;;;8.43;1.73;;;18.80;99.90;;;;;;5051460;28;20122;-75
2023/08/07 09:02:50;;;;;;;10.63;1.90;;;18.60;99.90;;;;;;5043082;28;20022;-75
2023/08/07 09:05:17;;;;;;;11.27;1.90;;;18.50;99.90;;;;;;5048985;28;20021;-75
2023/08/07 09:07:46;;;;;;;7.28;1.60;;;18.50;99.90;;;;;;5051638;28;20043;-75
2023/08/07 09:10:16;;;;;;;12.20;1.70;;;18.50;99.90;;;;;;5042601;28;20484;-75
2023/08/07 09:12:54;;;;;;;7.38;1.90;;;18.60;99.90;;;;;;5051259;28;20018;-75
2023/08/07 09:15:21;;;;;;;8.65;2.13;;;18.70;99.90;;;;;;5045571;28;20029;-75
2023/08/07 09:17:48;;;;;;;7.70;2.08;;;18.70;99.90;;;;;;5036244;28;20112;-76
2023/08/07 09:20:14;;;;;;;7.45;1.77;;;18.70;99.90;;;;;;5051282;28;20017;-75
2023/08/07 09:22:41;;;;;;;7.85;2.00;;;18.60;99.90;;;;;;5047258;28;20431;-75
2023/08/07 09:25:07;;;;;;;8.95;1.60;;;18.50;99.90;;;;;;5050066;28;20035;-75
2023/08/07 09:27:33;;;;;;;8.20;2.13;;;18.50;99.90;;;;;;5051186;28;20028;-75
2023/08/07 09:29:59;;;;;;;5.43;1.70;;;18.50;99.90;;;;;;5051589;28;20477;-75
2023/08/07 09:32:25;;;;;;;6.97;2.05;;;18.50;99.90;;;;;;5038321;28;20044;-75
2023/08/07 09:34:53;;;;;;;9.10;1.85;;;18.60;99.90;;;;;;5051480;28;20017;-75
2023/08/07 09:37:19;;;;;;;4.88;1.73;;;18.70;99.90;;;;;;5051582;28;20033;-75
2023/08/07 09:39:46;;;;;;;6.28;1.85;;;18.80;99.90;;;;;;5052638;28;20032;-75
2023/08/07 09:42:17;;;;;;;7.03;1.80;;;19.00;99.90;;;;;;5059548;28;20315;-75
2023/08/07 09:44:48;;;;;;;6.93;1.77;;;19.20;99.90;;;;;;5050909;28;20110;-75
2023/08/07 09:47:18;;;;;;;6.45;1.50;;;19.30;99.90;;;;;;5048250;28;20483;-75
2023/08/07 09:49:44;;;;;;;9.65;1.83;;;19.40;99.90;;;;;;5050929;28;20027;-76
2023/08/07 09:52:18;;;;;;;7.60;1.65;;;19.60;99.90;;;;;;5050659;28;20380;-75
2023/08/07 09:54:43;;;;;;;6.43;1.60;;;19.80;99.90;;;;;;5050936;28;20086;-75
2023/08/07 09:57:09;;;;;;;5.53;1.60;;;19.80;99.90;;;;;;5050406;28;20104;-75
2023/08/07 09:59:35;;;;;;;5.18;1.70;;;19.80;99.90;;;;;;5050601;28;20055;-75
2023/08/07 10:02:02;;;;;;;4.57;1.65;;;19.70;99.90;;;;;;5050496;28;20055;-75
2023/08/07 10:04:28;;;;;;;6.50;1.70;;;19.80;99.90;;;;;;5042365;28;20099;-75
2023/08/07 10:06:55;;;;;;;5.85;1.70;;;19.90;99.90;;;;;;5045325;28;20487;-75
2023/08/07 10:09:21;;;;;;;6.32;1.63;;;20.00;99.90;;;;;;5050564;28;20020;-75
2023/08/07 10:11:48;;;;;;;7.10;1.52;;;20.00;99.80;;;;;;5040569;28;20484;-75
2023/08/07 10:14:15;;;;;;;5.90;1.88;;;20.10;99.90;;;;;;5041264;28;20036;-75
2023/08/07 10:16:41;;;;;;;5.97;1.77;;;20.10;99.90;;;;;;5050595;28;20033;-75
2023/08/07 10:19:08;;;;;;;5.03;1.67;;;20.10;99.90;;;;;;5047682;28;20013;-76
2023/08/07 10:21:36;;;;;;;9.15;1.50;;;20.20;99.90;;;;;;5046837;28;20044;-75
2023/08/07 10:24:07;;;;;;;9.60;1.75;;;20.20;99.90;;;;;;5045083;28;20400;-75
2023/08/07 10:26:35;;;;;;;8.32;1.80;;;20.10;99.90;;;;;;5050193;28;20507;-75
2023/08/07 10:29:03;;;;;;;8.02;1.90;;;20.00;99.90;;;;;;5046955;28;20021;-76
2023/08/07 10:31:31;;;;;;;5.80;1.77;;;20.00;99.90;;;;;;5047434;28;20047;-76
2023/08/07 10:33:58;;;;;;;8.18;1.67;;;20.10;99.60;;;;;;5050388;28;20086;-76
2023/08/07 10:36:23;;;;;;;4.72;1.50;;;20.20;99.80;;;;;;5050095;28;20033;-76
2023/08/07 10:38:51;;;;;;;6.25;1.70;;;20.30;99.10;;;;;;5050412;28;20507;-75
2023/08/07 10:41:18;;;;;;;6.10;1.83;;;20.30;98.40;;;;;;5046890;28;20137;-76
2023/08/07 10:43:45;;;;;;;7.78;2.00;;;20.20;98.50;;;;;;5043660;28;20032;-75
2023/08/07 10:46:23;;;;;;;7.82;1.77;;;20.20;99.30;;;;;;5049974;28;20022;-75
2023/08/07 10:48:57;;;;;;;9.93;1.80;;;20.20;99.60;;;;;;5050093;28;20083;-75
2023/08/07 10:51:30;;;;;;;7.63;1.70;;;20.20;99.80;;;;;;5049113;28;20075;-75
2023/08/07 10:53:56;;;;;;;7.65;1.65;;;20.40;99.90;;;;;;5050478;28;20020;-75
2023/08/07 10:56:33;;;;;;;7.05;1.88;;;20.40;99.90;;;;;;5050010;28;20098;-76
2023/08/07 10:59:11;;;;;;;4.80;1.60;;;20.40;99.80;;;;;;5049867;28;20067;-75
2023/08/07 11:01:41;;;;;;;4.03;1.60;;;20.50;98.20;;;;;;5049843;28;20021;-76
2023/08/07 11:04:12;;;;;;;9.13;1.90;;;20.40;97.00;;;;;;5033181;28;20010;-76
2023/08/07 11:06:40;;;;;;;8.57;1.52;;;20.40;97.50;;;;;;5035513;28;20037;-75
2023/08/07 11:09:08;;;;;;;5.57;1.98;;;20.40;98.00;;;;;;5040853;28;20048;-75
2023/08/07 11:11:40;;;;;;;4.93;1.67;;;20.50;97.50;;;;;;5049581;28;20021;-76
2023/08/07 11:14:10;;;;;;;5.07;1.70;;;20.70;95.90;;;;;;5050373;28;20052;-76
2023/08/07 11:16:37;;;;;;;5.80;1.63;;;20.70;95.20;;;;;;5050881;28;20369;-75
2023/08/07 11:19:04;;;;;;;8.35;1.83;;;20.70;95.80;;;;;;5049039;28;20025;-76
2023/08/07 11:21:33;;;;;;;5.25;1.60;;;20.90;96.50;;;;;;5054674;28;20045;-76
2023/08/07 11:23:59;;;;;;;5.43;1.70;;;20.90;96.20;;;;;;5051042;28;20044;-76
2023/08/07 11:26:27;;;;;;;4.68;1.67;;;20.80;96.40;;;;;;5053957;28;20483;-76
2023/08/07 11:28:56;;;;;;;6.20;1.92;;;20.70;96.80;;;;;;5053530;28;20036;-76
2023/08/07 11:31:24;;;;;;;7.85;1.80;;;20.60;97.70;;;;;;5053372;28;20025;-76
2023/08/07 11:33:59;;;;;;;5.68;1.92;;;20.70;98.10;;;;;;5052711;28;20033;-76
2023/08/07 11:36:25;;;;;;;5.78;1.80;;;20.70;98.40;;;;;;5053419;28;20127;-76
2023/08/07 11:38:51;;;;;;;9.30;2.08;;;20.70;98.20;;;;;;5052155;28;20031;-76
2023/08/07 11:41:18;;;;;;;9.32;2.03;;;20.70;98.70;;;;;;5053868;28;20021;-76
2023/08/07 11:43:44;;;;;;;9.73;2.00;;;20.70;99.20;;;;;;5053435;28;20024;-75
2023/08/07 11:46:12;;;;;;;8.48;2.17;;;20.70;99.70;;;;;;5050485;28;20045;-76
2023/08/07 11:48:39;;;;;;;6.60;2.13;;;20.70;99.90;;;;;;5051678;28;20427;-76
2023/08/07 11:51:06;;;;;;;8.07;2.30;;;20.80;99.90;;;;;;5043964;28;20105;-75
2023/08/07 11:53:34;;;;;;;7.10;2.10;;;21.00;99.90;;;;;;5052402;28;20079;-75
2023/08/07 11:56:02;;;;;;;6.03;2.22;;;21.30;99.90;;;;;;5051366;28;20703;-76
2023/08/07 11:58:34;;;;;;;6.03;2.08;;;21.30;99.60;;;;;;5053125;28;20049;-76
2023/08/07 12:01:09;;;;;;;7.15;1.88;;;21.40;99.70;;;;;;5053739;28;20444;-75
2023/08/07 12:03:38;;;;;;;;;;;21.50;99.10;;;;;;5052582;28;20048;-76
2023/08/07 12:06:05;;;;;;;11.25;2.53;;;21.40;97.70;;;;;;5044217;28;19986;-76
2023/08/07 12:08:41;;;;;;;5.38;2.03;;;21.30;98.90;;;;;;5043413;28;20448;-75
2023/08/07 12:11:11;;;;;;;6.10;2.13;;;21.40;99.10;;;;;;5038208;28;20027;-76
2023/08/07 12:13:45;;;;;;;7.90;2.08;;;21.60;99.30;;;;;;5045473;28;20017;-76
2023/08/07 12:16:15;;;;;;;7.05;2.20;;;21.70;99.40;;;;;;5052954;28;20047;-75
2023/08/07 12:18:48;;;;;;;9.02;2.03;;;21.70;98.60;;;;;;5047210;28;20066;-75
2023/08/07 12:21:18;;;;;;;7.85;2.00;;;21.60;98.40;;;;;;5051880;28;20119;-75
2023/08/07 12:23:44;;;;;;;5.50;2.33;;;21.30;98.00;;;;;;5049274;28;20040;-76
2023/08/07 12:26:10;;;;;;;9.60;2.53;;;21.00;98.70;;;;;;5046057;28;20037;-76
2023/08/07 12:28:36;;;;;;;8.57;2.50;;;21.00;99.50;;;;;;5048979;28;20119;-76
2023/08/07 12:31:02;;;;;;;10.60;2.50;;;20.90;99.90;;;;;;5050330;28;20017;-75
2023/08/07 12:33:31;;;;;;;7.70;2.40;;;20.70;99.90;;;;;;5056907;28;20029;-76
2023/08/07 12:35:57;;;;;;;5.95;2.40;;;20.70;99.90;;;;;;5059586;28;20021;-76
2023/08/07 12:38:23;;;;;;;9.15;2.50;;;20.60;99.90;;;;;;5052434;28;20687;-76